Time;durP1;ratioP1;P1;durP2;ratioP2;P2;SDS_P1;SDS_P2;PMS_P1;PMS_P2;Temp;Humidity;BMP_temperature;BMP_pressure;BME280_temperature;BME280_humidity;BME280_pressure;Samples;Min_cycle;Max_cycle;Signal;HPM_P1;HPM_P2
2022/03/30 00:02:01;;;;;;;3.00;2.33;;;7.90;95.10;;;;;;5021115;28;20215;-82
2022/03/30 00:04:28;;;;;;;5.57;2.73;;;7.80;95.20;;;;;;5031125;28;20248;-82
2022/03/30 00:06:54;;;;;;;4.70;2.50;;;7.70;95.20;;;;;;5031122;28;20209;-82
2022/03/30 00:09:21;;;;;;;3.60;2.27;;;7.80;95.20;;;;;;5029832;28;20209;-82
2022/03/30 00:11:53;;;;;;;4.60;2.20;;;7.90;95.00;;;;;;5030941;28;20216;-81
2022/03/30 00:14:20;;;;;;;3.83;2.37;;;7.90;94.90;;;;;;5030797;28;20663;-84
2022/03/30 00:16:48;;;;;;;4.03;2.50;;;7.90;94.70;;;;;;5031474;28;20239;-85
2022/03/30 00:19:15;;;;;;;4.03;2.13;;;7.90;94.80;;;;;;5038211;28;20784;-84
2022/03/30 00:21:41;;;;;;;2.33;2.10;;;7.80;94.80;;;;;;5039554;28;20209;-83
2022/03/30 00:24:08;;;;;;;3.43;2.10;;;7.90;94.70;;;;;;5031132;28;20738;-83
2022/03/30 00:26:35;;;;;;;2.97;2.40;;;7.80;94.70;;;;;;5031212;28;20231;-83
2022/03/30 00:29:04;;;;;;;3.37;2.33;;;7.80;94.70;;;;;;5030707;28;20205;-83
2022/03/30 00:31:31;;;;;;;2.13;2.03;;;7.80;94.80;;;;;;5030955;28;20213;-84
2022/03/30 00:33:58;;;;;;;4.23;2.27;;;7.70;94.80;;;;;;5031251;28;20296;-83
2022/03/30 00:36:25;;;;;;;4.73;1.80;;;7.70;94.80;;;;;;5030897;28;20201;-84
2022/03/30 00:38:51;;;;;;;3.10;2.00;;;7.60;94.90;;;;;;5035562;28;20212;-83
2022/03/30 00:41:18;;;;;;;2.20;1.97;;;7.50;94.90;;;;;;5051431;28;20208;-83
2022/03/30 00:43:45;;;;;;;2.70;1.80;;;7.50;95.00;;;;;;5050616;28;20715;-83
2022/03/30 00:46:13;;;;;;;4.00;1.87;;;7.40;95.20;;;;;;5041190;28;20216;-83
2022/03/30 00:48:42;;;;;;;2.40;1.73;;;7.30;95.30;;;;;;5031149;28;20223;-85
2022/03/30 00:51:12;;;;;;;5.73;2.83;;;7.30;95.50;;;;;;5030581;28;20216;-79
2022/03/30 00:53:39;;;;;;;2.97;1.87;;;7.30;95.50;;;;;;5018010;28;20213;-78
2022/03/30 00:56:07;;;;;;;3.53;2.07;;;7.40;95.50;;;;;;5010559;28;20236;-82
2022/03/30 00:58:37;;;;;;;2.90;1.50;;;7.30;95.40;;;;;;5010094;28;20589;-82
2022/03/30 01:01:07;;;;;;;2.57;1.73;;;7.40;95.40;;;;;;5010645;28;20210;-82
2022/03/30 01:03:36;;;;;;;4.57;2.30;;;7.30;95.40;;;;;;5010299;28;20243;-82
2022/03/30 01:06:05;;;;;;;3.77;1.90;;;7.20;95.50;;;;;;5010868;28;20209;-83
2022/03/30 01:08:32;;;;;;;2.23;1.60;;;7.30;95.40;;;;;;5010606;28;20228;-83
2022/03/30 01:11:00;;;;;;;4.67;2.10;;;7.20;95.40;;;;;;5011375;28;20267;-84
2022/03/30 01:13:27;;;;;;;4.93;1.90;;;7.10;95.60;;;;;;5011465;28;20216;-84
2022/03/30 01:15:53;;;;;;;6.37;2.53;;;7.20;95.60;;;;;;5011007;28;20209;-84
2022/03/30 01:18:21;;;;;;;3.57;1.90;;;7.10;95.70;;;;;;5025344;28;20307;-84
2022/03/30 01:20:49;;;;;;;2.80;1.73;;;6.90;95.90;;;;;;5010751;28;20304;-85
2022/03/30 01:23:16;;;;;;;6.43;2.07;;;6.80;96.00;;;;;;5019384;28;20773;-80
2022/03/30 01:25:43;;;;;;;4.37;1.70;;;6.70;96.10;;;;;;5025915;28;20629;-80
2022/03/30 01:28:09;;;;;;;3.83;1.77;;;6.70;96.20;;;;;;5009618;28;20205;-80
2022/03/30 01:33:21;;;;;;;1.50;1.40;;;6.80;96.20;;;;;;5017793;28;20231;-80
2022/03/30 01:35:49;;;;;;;3.43;1.80;;;6.90;96.10;;;;;;5039298;28;20214;-80
2022/03/30 01:38:15;;;;;;;4.07;1.83;;;6.90;96.40;;;;;;5049550;28;20211;-80
2022/03/30 01:40:42;;;;;;;5.00;1.50;;;6.80;96.00;;;;;;5049230;28;20299;-80
2022/03/30 01:43:09;;;;;;;3.70;2.07;;;6.90;96.10;;;;;;5033648;28;20432;-80
2022/03/30 01:45:35;;;;;;;3.00;2.10;;;6.80;96.10;;;;;;5028953;28;20271;-80
2022/03/30 01:48:02;;;;;;;2.47;1.70;;;6.70;96.20;;;;;;5029413;28;20259;-80
2022/03/30 01:50:32;;;;;;;2.53;1.80;;;6.70;96.30;;;;;;5029363;28;20205;-79
2022/03/30 01:53:00;;;;;;;4.43;2.10;;;6.60;96.30;;;;;;5022417;28;20209;-80
2022/03/30 01:55:27;;;;;;;4.47;2.10;;;6.50;96.50;;;;;;5009325;28;20296;-84
2022/03/30 01:57:54;;;;;;;4.03;1.90;;;6.50;96.50;;;;;;5009275;28;20225;-84
2022/03/30 02:00:21;;;;;;;6.13;1.80;;;6.50;96.50;;;;;;5009103;28;20214;-85
2022/03/30 02:02:48;;;;;;;1.90;1.77;;;6.50;96.50;;;;;;5009400;28;20249;-84
2022/03/30 02:05:16;;;;;;;2.47;1.63;;;6.50;96.60;;;;;;5009316;28;20631;-84
2022/03/30 02:07:43;;;;;;;4.77;2.07;;;6.50;96.60;;;;;;5009300;28;20205;-83
2022/03/30 02:10:12;;;;;;;3.83;1.60;;;6.50;96.60;;;;;;5008995;28;20737;-81
2022/03/30 02:12:39;;;;;;;2.77;1.93;;;6.50;96.60;;;;;;5008939;28;20213;-81
2022/03/30 02:15:08;;;;;;;2.37;1.53;;;6.40;96.60;;;;;;5027158;28;20219;-83
2022/03/30 02:17:34;;;;;;;3.23;1.57;;;6.50;96.60;;;;;;5028249;28;20660;-82
2022/03/30 02:20:02;;;;;;;2.20;1.53;;;6.40;96.60;;;;;;5031672;28;20244;-80
2022/03/30 02:22:29;;;;;;;3.97;1.77;;;6.40;96.70;;;;;;5020213;28;20267;-84
2022/03/30 02:24:55;;;;;;;3.30;1.10;;;6.40;96.60;;;;;;5008602;28;20234;-78
2022/03/30 02:27:23;;;;;;;2.63;1.70;;;6.40;96.60;;;;;;5008265;28;20741;-79
2022/03/30 02:29:53;;;;;;;4.37;1.40;;;6.40;96.70;;;;;;5008334;28;20256;-79
2022/03/30 02:32:20;;;;;;;5.13;2.00;;;6.20;96.90;;;;;;5019765;28;20562;-79
2022/03/30 02:34:46;;;;;;;1.47;1.10;;;6.20;97.00;;;;;;5022728;28;20617;-79
2022/03/30 02:37:13;;;;;;;3.90;1.73;;;6.10;97.00;;;;;;5004896;28;20213;-79
2022/03/30 02:39:41;;;;;;;3.17;1.17;;;6.10;97.10;;;;;;5023887;28;20267;-79
2022/03/30 02:42:08;;;;;;;1.73;1.33;;;6.00;97.10;;;;;;5025027;28;20200;-79
2022/03/30 02:44:37;;;;;;;1.70;1.50;;;6.00;97.20;;;;;;5024442;28;20651;-79
2022/03/30 02:47:05;;;;;;;2.47;1.57;;;6.00;97.40;;;;;;5024490;28;20210;-79
2022/03/30 02:49:32;;;;;;;5.20;1.80;;;6.00;97.40;;;;;;5024117;28;20244;-79
2022/03/30 02:51:58;;;;;;;2.97;1.53;;;6.10;97.50;;;;;;5024013;28;20581;-79
2022/03/30 02:54:25;;;;;;;4.13;1.80;;;6.10;97.50;;;;;;5023731;28;20256;-78
2022/03/30 02:56:52;;;;;;;1.97;1.00;;;6.20;97.40;;;;;;5024211;28;20240;-78
2022/03/30 02:59:18;;;;;;;1.63;1.50;;;6.10;97.30;;;;;;5023629;28;20240;-78
2022/03/30 03:01:47;;;;;;;3.70;1.50;;;6.10;97.70;;;;;;5023883;28;20244;-79
2022/03/30 03:04:13;;;;;;;3.80;2.17;;;6.00;97.30;;;;;;5022798;28;20616;-79
2022/03/30 03:06:40;;;;;;;1.93;1.07;;;6.00;97.40;;;;;;5027895;28;20263;-79
2022/03/30 03:09:08;;;;;;;5.93;2.03;;;6.00;97.50;;;;;;5026534;28;20712;-78
2022/03/30 03:11:35;;;;;;;2.93;1.77;;;6.00;97.50;;;;;;5027866;28;20200;-79
2022/03/30 03:14:05;;;;;;;2.67;1.87;;;6.10;97.60;;;;;;5028042;28;20209;-78
2022/03/30 03:16:31;;;;;;;2.20;1.20;;;6.10;97.80;;;;;;5028214;28;20213;-78
2022/03/30 03:18:59;;;;;;;2.27;1.40;;;6.00;98.10;;;;;;5032782;28;20739;-79
2022/03/30 03:21:26;;;;;;;5.80;2.00;;;6.10;98.40;;;;;;5047901;28;20266;-79
2022/03/30 03:23:53;;;;;;;2.63;1.37;;;5.70;98.50;;;;;;5033602;28;20286;-78
2022/03/30 03:26:19;;;;;;;2.10;1.40;;;5.70;98.80;;;;;;5028084;28;20215;-79
2022/03/30 03:28:46;;;;;;;3.23;1.33;;;5.50;99.00;;;;;;5027627;28;20558;-78
2022/03/30 03:31:13;;;;;;;2.93;1.50;;;5.60;99.10;;;;;;5027376;28;20731;-79
2022/03/30 03:33:39;;;;;;;4.57;1.70;;;5.60;99.10;;;;;;5027766;28;20258;-78
2022/03/30 03:36:07;;;;;;;6.03;1.90;;;5.70;99.10;;;;;;5027618;28;20255;-78
2022/03/30 03:38:34;;;;;;;3.77;1.77;;;5.50;99.20;;;;;;5027589;28;20208;-79
2022/03/30 03:41:01;;;;;;;3.23;1.60;;;5.60;99.30;;;;;;5027858;28;20228;-79
2022/03/30 03:43:27;;;;;;;4.00;1.57;;;5.60;99.40;;;;;;5029946;28;20212;-79
2022/03/30 03:45:54;;;;;;;3.90;1.60;;;5.70;99.30;;;;;;5031307;28;20263;-79
2022/03/30 03:48:20;;;;;;;3.47;1.50;;;5.80;99.30;;;;;;5031471;28;20220;-79
2022/03/30 03:50:47;;;;;;;3.47;1.33;;;5.80;99.20;;;;;;5031170;28;20262;-79
2022/03/30 03:53:15;;;;;;;4.17;1.47;;;5.70;99.10;;;;;;5019841;28;20217;-79
2022/03/30 03:55:42;;;;;;;3.77;1.63;;;5.70;99.20;;;;;;5011149;28;20616;-79
2022/03/30 03:58:09;;;;;;;1.93;1.70;;;5.70;99.20;;;;;;5011195;28;20451;-79
2022/03/30 04:00:36;;;;;;;2.10;1.20;;;5.70;99.30;;;;;;5010621;28;20668;-79
2022/03/30 04:03:03;;;;;;;2.73;1.50;;;5.60;99.60;;;;;;5011273;28;20209;-78
2022/03/30 04:05:29;;;;;;;2.23;1.60;;;5.50;99.50;;;;;;5012365;28;20229;-79
2022/03/30 04:07:56;;;;;;;4.57;1.70;;;5.60;99.50;;;;;;5030666;28;20209;-79
2022/03/30 04:10:24;;;;;;;4.07;1.50;;;5.60;99.50;;;;;;5031158;28;20621;-79
2022/03/30 04:12:51;;;;;;;4.03;1.60;;;5.60;99.80;;;;;;5031020;28;20208;-79
2022/03/30 04:15:18;;;;;;;6.57;1.80;;;5.60;99.50;;;;;;5030481;28;20209;-79
2022/03/30 04:17:46;;;;;;;4.60;1.90;;;5.60;99.50;;;;;;5030719;28;20213;-79
2022/03/30 04:20:14;;;;;;;2.03;1.53;;;5.70;99.50;;;;;;5045893;28;20262;-78
2022/03/30 04:22:41;;;;;;;3.53;1.50;;;5.60;99.50;;;;;;5046468;28;20209;-79
2022/03/30 04:25:08;;;;;;;4.07;1.90;;;5.60;99.70;;;;;;5045516;28;20236;-79
2022/03/30 04:27:36;;;;;;;2.93;1.60;;;5.60;99.80;;;;;;5050372;28;20254;-79
2022/03/30 04:30:04;;;;;;;2.77;1.70;;;5.60;99.90;;;;;;5050347;28;20204;-78
2022/03/30 04:32:31;;;;;;;2.23;1.83;;;5.50;99.90;;;;;;5022568;28;20223;-79
2022/03/30 04:34:58;;;;;;;2.93;1.33;;;5.50;99.90;;;;;;5030481;28;20216;-79
2022/03/30 04:37:24;;;;;;;5.43;1.87;;;5.40;99.90;;;;;;5030256;28;20208;-79
2022/03/30 04:39:51;;;;;;;2.40;1.40;;;5.40;99.90;;;;;;5030664;28;20266;-79
2022/03/30 04:42:20;;;;;;;2.70;1.40;;;5.40;99.90;;;;;;5030279;28;20209;-78
2022/03/30 04:44:51;;;;;;;3.47;1.50;;;5.50;99.90;;;;;;5030033;28;20236;-79
2022/03/30 04:47:18;;;;;;;3.33;1.50;;;5.50;99.90;;;;;;5030512;28;20197;-79
2022/03/30 04:49:44;;;;;;;2.70;1.43;;;5.50;99.90;;;;;;5030375;28;20209;-79
2022/03/30 04:52:11;;;;;;;6.10;2.10;;;5.60;99.90;;;;;;5030045;28;20425;-79
2022/03/30 04:54:38;;;;;;;2.80;1.60;;;5.60;99.90;;;;;;5009589;28;20213;-78
2022/03/30 04:57:05;;;;;;;3.50;1.80;;;5.60;99.90;;;;;;5010331;28;20271;-79
2022/03/30 04:59:32;;;;;;;3.60;1.83;;;5.70;99.90;;;;;;5009972;28;20267;-79
2022/03/30 05:02:00;;;;;;;3.60;1.77;;;5.50;99.90;;;;;;5013530;28;20201;-79
2022/03/30 05:04:27;;;;;;;4.40;2.07;;;5.50;99.90;;;;;;5028274;28;20311;-78
2022/03/30 05:06:53;;;;;;;5.57;2.00;;;5.50;99.90;;;;;;5029858;28;20278;-79
2022/03/30 05:09:20;;;;;;;6.97;2.20;;;5.40;99.90;;;;;;5029861;28;20212;-78
2022/03/30 05:11:46;;;;;;;4.13;1.80;;;5.40;99.90;;;;;;5029464;28;20805;-79
2022/03/30 05:14:13;;;;;;;5.43;2.30;;;5.30;99.90;;;;;;5029656;28;20212;-78
2022/03/30 05:16:40;;;;;;;2.30;1.67;;;5.30;99.90;;;;;;5029652;28;20213;-78
2022/03/30 05:19:08;;;;;;;5.13;1.97;;;5.40;99.90;;;;;;5035644;28;20228;-79
2022/03/30 05:21:35;;;;;;;1.90;1.33;;;5.50;99.90;;;;;;5032143;28;20266;-77
2022/03/30 05:24:02;;;;;;;9.13;2.10;;;5.60;99.90;;;;;;5029560;28;20208;-77
2022/03/30 05:26:29;;;;;;;5.77;1.80;;;5.60;99.90;;;;;;5029156;28;20204;-78
2022/03/30 05:28:55;;;;;;;3.50;1.80;;;5.60;99.90;;;;;;5029265;28;20932;-78
2022/03/30 05:31:22;;;;;;;4.53;1.90;;;5.60;99.90;;;;;;5029434;28;20220;-78
2022/03/30 05:33:48;;;;;;;3.40;1.80;;;5.60;99.90;;;;;;5029358;28;20209;-78
2022/03/30 05:36:18;;;;;;;4.13;1.67;;;5.60;99.90;;;;;;5029534;28;20259;-78
2022/03/30 05:38:45;;;;;;;3.50;1.97;;;5.70;99.90;;;;;;5028858;28;20271;-78
2022/03/30 05:41:12;;;;;;;5.17;2.17;;;5.70;99.90;;;;;;5029060;28;20227;-77
2022/03/30 05:43:38;;;;;;;3.00;1.63;;;5.50;99.90;;;;;;5029210;28;20205;-77
2022/03/30 05:46:05;;;;;;;3.70;2.37;;;5.40;99.90;;;;;;5028850;28;20236;-78
2022/03/30 05:48:32;;;;;;;4.47;2.53;;;5.50;99.90;;;;;;5029024;28;20209;-78
2022/03/30 05:50:59;;;;;;;3.97;1.87;;;5.50;99.90;;;;;;5029059;28;20339;-78
2022/03/30 05:53:27;;;;;;;5.30;2.30;;;5.50;99.90;;;;;;5016083;28;20205;-77
2022/03/30 05:55:55;;;;;;;5.60;2.67;;;5.30;99.90;;;;;;5009562;28;20213;-78
2022/03/30 05:58:22;;;;;;;5.50;2.30;;;5.40;99.90;;;;;;5012957;28;20228;-78
2022/03/30 06:00:50;;;;;;;4.27;1.60;;;5.50;99.90;;;;;;5028429;28;20668;-78
2022/03/30 06:03:17;;;;;;;6.87;3.17;;;5.50;99.90;;;;;;5028817;28;20312;-78
2022/03/30 06:05:44;;;;;;;6.13;2.53;;;5.60;99.90;;;;;;5028641;28;20584;-78
2022/03/30 06:08:11;;;;;;;3.03;1.77;;;5.80;99.90;;;;;;5029003;28;20618;-78
2022/03/30 06:10:39;;;;;;;4.80;1.60;;;5.80;99.90;;;;;;5028586;28;20262;-77
2022/03/30 06:13:07;;;;;;;4.17;2.20;;;5.90;99.90;;;;;;5028755;28;20270;-77
2022/03/30 06:15:34;;;;;;;4.30;2.97;;;6.00;99.90;;;;;;5028153;28;20208;-77
2022/03/30 06:18:03;;;;;;;10.90;6.13;;;6.00;99.90;;;;;;5046572;28;20215;-77
2022/03/30 06:20:30;;;;;;;7.43;6.37;;;6.10;99.90;;;;;;5048012;28;20248;-78
2022/03/30 06:22:57;;;;;;;8.83;6.13;;;6.00;99.90;;;;;;5042207;28;20227;-78
2022/03/30 06:25:25;;;;;;;8.93;6.17;;;5.90;99.90;;;;;;5028443;28;20225;-78
2022/03/30 06:27:53;;;;;;;8.97;5.10;;;5.80;99.90;;;;;;5028757;28;20213;-78
2022/03/30 06:30:21;;;;;;;5.30;4.80;;;5.80;99.90;;;;;;5028431;28;20422;-78
2022/03/30 06:32:49;;;;;;;6.37;4.67;;;5.80;99.90;;;;;;5028479;28;20270;-77
2022/03/30 06:35:18;;;;;;;6.50;3.97;;;5.90;99.90;;;;;;5028333;28;20221;-77
2022/03/30 06:37:45;;;;;;;6.03;2.90;;;6.00;99.90;;;;;;5028118;28;20661;-78
2022/03/30 06:40:12;;;;;;;3.57;2.50;;;6.00;99.90;;;;;;5028189;28;20215;-77
2022/03/30 06:42:39;;;;;;;3.73;2.20;;;6.00;99.90;;;;;;5027704;28;20667;-78
2022/03/30 06:45:10;;;;;;;4.30;3.23;;;6.00;99.90;;;;;;5028169;28;20221;-77
2022/03/30 06:47:38;;;;;;;5.73;2.30;;;6.10;99.90;;;;;;5028267;28;20197;-77
2022/03/30 06:50:06;;;;;;;3.50;3.17;;;6.00;99.90;;;;;;5028196;28;20255;-78
2022/03/30 06:52:35;;;;;;;7.13;3.97;;;6.00;99.90;;;;;;5022172;28;20214;-78
2022/03/30 06:55:03;;;;;;;5.60;4.10;;;6.00;99.90;;;;;;5015985;28;20328;-78
2022/03/30 06:57:30;;;;;;;7.70;4.57;;;6.20;99.90;;;;;;5028044;28;20228;-78
2022/03/30 06:59:57;;;;;;;7.13;4.20;;;6.30;99.90;;;;;;5027860;28;20209;-78
2022/03/30 07:02:25;;;;;;;5.40;3.57;;;6.20;99.90;;;;;;5009268;28;20219;-78
2022/03/30 07:04:52;;;;;;;6.90;3.17;;;6.30;99.90;;;;;;5025394;28;20244;-78
2022/03/30 07:10:18;;;;;;;4.67;3.27;;;6.30;99.90;;;;;;5027823;28;20200;-78
2022/03/30 07:12:46;;;;;;;7.17;3.03;;;6.30;99.90;;;;;;5033423;28;20737;-78
2022/03/30 07:15:14;;;;;;;4.00;3.00;;;6.50;99.90;;;;;;5047868;28;20204;-78
2022/03/30 07:17:46;;;;;;;7.63;3.33;;;6.50;99.90;;;;;;5049117;28;20204;-78
2022/03/30 07:20:14;;;;;;;5.90;3.37;;;6.60;99.90;;;;;;5039911;28;20236;-78
2022/03/30 07:22:41;;;;;;;4.10;2.77;;;6.50;99.90;;;;;;5031708;28;20246;-78
2022/03/30 07:25:09;;;;;;;4.30;2.00;;;6.60;99.90;;;;;;5031327;28;20845;-78
2022/03/30 07:27:39;;;;;;;6.10;2.37;;;6.80;99.90;;;;;;5031731;28;20204;-78
2022/03/30 07:30:07;;;;;;;4.00;2.30;;;6.90;99.90;;;;;;5031703;28;20193;-78
2022/03/30 07:32:35;;;;;;;3.93;2.23;;;7.00;99.90;;;;;;5031674;28;20208;-78
2022/03/30 07:35:03;;;;;;;19.77;13.40;;;7.10;99.90;;;;;;5031697;28;20254;-78
2022/03/30 07:37:29;;;;;;;6.23;3.90;;;7.10;99.90;;;;;;5031288;28;20212;-78
2022/03/30 07:39:56;;;;;;;3.87;2.40;;;7.30;99.90;;;;;;5031683;28;20208;-77
2022/03/30 07:42:23;;;;;;;4.90;2.67;;;7.30;99.90;;;;;;5031145;28;20978;-78
2022/03/30 07:44:49;;;;;;;4.53;2.33;;;7.30;99.90;;;;;;5031285;28;20205;-78
2022/03/30 07:47:17;;;;;;;3.07;2.10;;;7.50;99.90;;;;;;5031475;28;20216;-78
2022/03/30 07:49:44;;;;;;;3.47;2.27;;;7.60;99.90;;;;;;5031149;28;20212;-78
2022/03/30 07:52:12;;;;;;;3.63;2.20;;;7.70;99.90;;;;;;5016180;28;20209;-78
2022/03/30 07:54:41;;;;;;;4.73;1.93;;;7.70;99.90;;;;;;5031454;28;20216;-78
2022/03/30 07:57:07;;;;;;;3.27;2.50;;;7.90;99.90;;;;;;5030959;28;20224;-79
2022/03/30 07:59:34;;;;;;;5.03;1.90;;;7.90;99.90;;;;;;5031018;28;20279;-78
2022/03/30 08:02:01;;;;;;;3.80;1.97;;;8.00;99.90;;;;;;5031248;28;20209;-78
2022/03/30 08:04:27;;;;;;;7.13;2.37;;;8.00;99.90;;;;;;5030790;28;20205;-78
2022/03/30 08:06:54;;;;;;;4.80;1.93;;;8.10;99.90;;;;;;5030796;28;20307;-78
2022/03/30 08:09:22;;;;;;;4.20;2.20;;;8.10;99.90;;;;;;5038687;28;20659;-77
2022/03/30 08:11:49;;;;;;;7.57;1.97;;;8.20;99.90;;;;;;5050655;28;20212;-78
2022/03/30 08:14:15;;;;;;;3.07;1.50;;;8.20;99.90;;;;;;5050244;28;20204;-78
2022/03/30 08:16:42;;;;;;;4.63;2.10;;;8.30;99.70;;;;;;5036794;28;20209;-77
2022/03/30 08:19:09;;;;;;;2.60;1.63;;;8.30;99.30;;;;;;5036662;28;20772;-78
2022/03/30 08:24:22;;;;;;;1.77;1.67;;;8.40;99.20;;;;;;5032797;28;20215;-78
2022/03/30 08:26:48;;;;;;;4.73;2.20;;;8.50;98.90;;;;;;5030558;28;20240;-78
2022/03/30 08:29:16;;;;;;;3.83;1.87;;;8.50;98.80;;;;;;5029137;28;20205;-77
2022/03/30 08:31:42;;;;;;;4.13;2.10;;;8.50;98.80;;;;;;5030772;28;20212;-78
2022/03/30 08:34:09;;;;;;;3.70;1.60;;;8.50;98.30;;;;;;5030284;28;20208;-78
2022/03/30 08:36:36;;;;;;;6.30;2.20;;;8.50;98.00;;;;;;5030081;28;20223;-78
2022/03/30 08:39:10;;;;;;;3.20;1.63;;;8.50;98.20;;;;;;5030357;28;20216;-77
2022/03/30 08:41:41;;;;;;;3.47;1.90;;;8.50;98.10;;;;;;5030579;28;20250;-78
2022/03/30 08:44:08;;;;;;;6.67;2.17;;;8.60;97.70;;;;;;5030322;28;20189;-78
2022/03/30 08:46:35;;;;;;;4.67;1.73;;;8.60;97.70;;;;;;5029798;28;20240;-78
2022/03/30 08:49:01;;;;;;;6.50;2.00;;;8.60;97.40;;;;;;5010533;28;20633;-78
2022/03/30 08:51:28;;;;;;;2.30;1.47;;;8.60;97.30;;;;;;5010471;28;20209;-78
2022/03/30 08:53:55;;;;;;;3.03;1.80;;;8.70;97.70;;;;;;5020709;28;20208;-78
2022/03/30 08:56:23;;;;;;;3.90;2.20;;;8.80;97.40;;;;;;5029422;28;20224;-78
2022/03/30 08:58:54;;;;;;;2.70;1.60;;;8.80;97.20;;;;;;5030061;28;20216;-78
2022/03/30 09:01:23;;;;;;;2.50;1.63;;;8.90;97.20;;;;;;5030156;28;20263;-78
2022/03/30 09:03:57;;;;;;;3.03;1.50;;;8.90;96.70;;;;;;5030096;28;20215;-78
2022/03/30 09:06:38;;;;;;;5.67;2.03;;;8.90;95.90;;;;;;5029400;28;20610;-78
2022/03/30 09:09:06;;;;;;;3.23;1.70;;;8.90;95.90;;;;;;5030032;28;20201;-78
2022/03/30 09:11:44;;;;;;;7.27;2.53;;;9.00;96.10;;;;;;5029394;28;20612;-78
2022/03/30 09:14:13;;;;;;;3.40;1.80;;;9.00;95.90;;;;;;5029582;28;20201;-78
2022/03/30 09:16:40;;;;;;;6.43;2.60;;;9.00;96.20;;;;;;5029620;28;20219;-78
2022/03/30 09:19:10;;;;;;;4.77;2.13;;;9.00;95.20;;;;;;5029236;28;20603;-78
2022/03/30 09:21:44;;;;;;;8.60;2.40;;;8.90;95.10;;;;;;5029262;28;20212;-78
2022/03/30 09:24:11;;;;;;;4.67;1.67;;;9.00;95.10;;;;;;5029816;28;20262;-78
2022/03/30 09:26:38;;;;;;;3.53;1.70;;;9.10;94.60;;;;;;5029452;28;20237;-78
2022/03/30 09:29:07;;;;;;;0.80;0.80;;;9.10;94.10;;;;;;5029643;28;20213;-78
2022/03/30 09:31:36;;;;;;;5.07;1.27;;;9.10;93.20;;;;;;5029379;28;20243;-78
2022/03/30 09:34:04;;;;;;;2.37;1.00;;;9.20;93.20;;;;;;5029583;28;20209;-78
2022/03/30 09:36:32;;;;;;;14.83;2.70;;;9.20;93.20;;;;;;5029449;28;20547;-78
2022/03/30 09:38:59;;;;;;;2.63;1.33;;;9.20;93.00;;;;;;5029359;28;20213;-78
2022/03/30 09:41:26;;;;;;;2.90;1.50;;;9.30;92.90;;;;;;5028857;28;20205;-78
2022/03/30 09:44:03;;;;;;;3.37;1.73;;;9.40;93.00;;;;;;5020902;28;20218;-78
2022/03/30 09:46:30;;;;;;;1.40;1.30;;;9.30;92.90;;;;;;5009742;28;20578;-78
2022/03/30 09:48:57;;;;;;;2.73;1.30;;;9.40;92.90;;;;;;5009682;28;20267;-78
2022/03/30 09:51:27;;;;;;;4.80;1.60;;;9.40;92.80;;;;;;5009335;28;20212;-78
2022/03/30 09:53:54;;;;;;;3.07;1.57;;;9.40;92.90;;;;;;5028631;28;20291;-78
2022/03/30 09:56:22;;;;;;;3.20;1.33;;;9.40;92.20;;;;;;5028670;28;20236;-78
2022/03/30 09:59:00;;;;;;;1.77;1.03;;;9.40;92.50;;;;;;5028819;28;20201;-78
2022/03/30 10:01:29;;;;;;;2.10;1.03;;;9.40;92.10;;;;;;5028525;28;20299;-78
2022/03/30 10:03:59;;;;;;;3.03;1.47;;;9.40;91.70;;;;;;5028699;28;20288;-78
2022/03/30 10:06:28;;;;;;;4.83;1.20;;;9.30;92.00;;;;;;5028623;28;20227;-78
2022/03/30 10:08:56;;;;;;;3.37;1.23;;;9.30;92.20;;;;;;5027553;28;20209;-78
2022/03/30 10:11:25;;;;;;;1.53;0.90;;;9.40;92.50;;;;;;5028674;28;20640;-78
2022/03/30 10:13:54;;;;;;;3.67;1.80;;;9.40;92.40;;;;;;5028275;28;20668;-78
2022/03/30 10:16:22;;;;;;;3.27;1.27;;;9.60;92.30;;;;;;5028539;28;20204;-78
2022/03/30 10:18:51;;;;;;;3.33;1.20;;;9.60;92.10;;;;;;5031814;28;20235;-78
2022/03/30 10:21:26;;;;;;;1.13;1.10;;;9.60;92.10;;;;;;5048642;28;20207;-78
2022/03/30 10:24:29;;;;;;;2.20;1.27;;;9.60;92.20;;;;;;5034086;28;20231;-78
2022/03/30 10:27:05;;;;;;;4.57;1.73;;;9.60;92.90;;;;;;5028355;28;20278;-78
2022/03/30 10:29:32;;;;;;;1.70;1.40;;;9.60;92.60;;;;;;5028136;28;20196;-78
2022/03/30 10:32:10;;;;;;;5.50;1.50;;;9.50;92.50;;;;;;5028553;28;20618;-78
2022/03/30 10:34:42;;;;;;;2.30;1.30;;;9.70;92.30;;;;;;5028300;28;20610;-78
2022/03/30 10:37:11;;;;;;;3.73;1.40;;;9.80;92.60;;;;;;5028376;28;20189;-79
2022/03/30 10:39:56;;;;;;;2.93;1.23;;;9.90;92.50;;;;;;5027963;28;20212;-78
2022/03/30 10:42:23;;;;;;;2.63;1.40;;;9.90;92.50;;;;;;5028423;28;20254;-78
2022/03/30 10:44:53;;;;;;;4.17;1.97;;;10.00;92.50;;;;;;5028036;28;20208;-77
2022/03/30 10:47:22;;;;;;;1.33;1.23;;;10.10;92.60;;;;;;5028280;28;20225;-78
2022/03/30 10:49:51;;;;;;;36.53;6.73;;;10.10;92.20;;;;;;5027964;28;20610;-78
2022/03/30 10:52:44;;;;;;;4.57;1.70;;;10.20;92.50;;;;;;5024698;28;20237;-77
2022/03/30 10:55:36;;;;;;;2.10;1.87;;;10.30;92.10;;;;;;5028116;28;20193;-78
2022/03/30 10:58:04;;;;;;;6.27;2.90;;;10.40;91.90;;;;;;5035791;28;20656;-78
2022/03/30 11:00:34;;;;;;;2.90;1.07;;;10.50;92.00;;;;;;5047666;28;20200;-78
2022/03/30 11:03:09;;;;;;;5.57;1.30;;;10.60;91.80;;;;;;5048211;28;20199;-78
2022/03/30 11:05:37;;;;;;;1.90;1.43;;;10.70;91.50;;;;;;5033195;28;20204;-78
2022/03/30 11:08:06;;;;;;;2.80;1.67;;;10.80;91.40;;;;;;5027931;28;20229;-78
2022/03/30 11:10:46;;;;;;;2.40;1.43;;;10.90;91.00;;;;;;5027755;28;20226;-78
2022/03/30 11:13:13;;;;;;;3.23;1.73;;;10.90;90.90;;;;;;5028048;28;20656;-78
2022/03/30 11:16:12;;;;;;;2.03;1.20;;;10.80;90.20;;;;;;5027342;28;20213;-78
2022/03/30 11:18:56;;;;;;;1.37;1.23;;;10.60;90.10;;;;;;5030195;28;20643;-78
2022/03/30 11:21:23;;;;;;;2.70;1.70;;;10.50;90.40;;;;;;5048071;28;20188;-78
2022/03/30 11:24:13;;;;;;;2.27;1.43;;;10.50;90.70;;;;;;5034176;28;20262;-78
2022/03/30 11:27:22;;;;;;;2.30;1.23;;;10.50;90.70;;;;;;5023538;28;20344;-78
2022/03/30 11:30:01;;;;;;;1.40;1.07;;;10.60;90.70;;;;;;5027743;28;20577;-78
2022/03/30 11:32:41;;;;;;;1.57;1.00;;;10.60;90.50;;;;;;5027833;28;20239;-78
2022/03/30 11:35:10;;;;;;;1.60;1.50;;;10.60;90.40;;;;;;5027725;28;20196;-78
2022/03/30 11:37:39;;;;;;;1.33;1.17;;;10.50;88.90;;;;;;5027587;28;20299;-78
2022/03/30 11:40:10;;;;;;;3.53;1.33;;;10.30;89.50;;;;;;5027804;28;20216;-78
2022/03/30 11:42:38;;;;;;;1.50;1.20;;;10.30;90.00;;;;;;5027622;28;20274;-78
2022/03/30 11:45:15;;;;;;;2.33;1.27;;;10.20;89.30;;;;;;5027255;28;20251;-78
2022/03/30 11:47:44;;;;;;;2.07;1.37;;;10.20;89.90;;;;;;5027500;28;20220;-78
2022/03/30 11:50:11;;;;;;;3.17;1.20;;;10.20;90.00;;;;;;5027623;28;20227;-78
2022/03/30 11:52:38;;;;;;;1.77;1.33;;;10.20;90.00;;;;;;5027485;28;20217;-78
2022/03/30 11:55:08;;;;;;;2.30;1.30;;;10.30;90.30;;;;;;5027151;28;20286;-78
2022/03/30 11:57:39;;;;;;;1.50;0.93;;;10.10;89.50;;;;;;5027553;28;20225;-78
2022/03/30 12:00:09;;;;;;;2.67;1.43;;;10.10;90.10;;;;;;5027508;28;20217;-78
2022/03/30 12:02:37;;;;;;;1.70;1.13;;;10.20;90.00;;;;;;5020569;28;20271;-77
2022/03/30 12:05:05;;;;;;;1.63;1.23;;;10.20;90.10;;;;;;5030703;28;20209;-78
2022/03/30 12:07:36;;;;;;;1.60;1.50;;;10.20;90.10;;;;;;5030960;28;20300;-78
2022/03/30 12:10:04;;;;;;;2.80;1.20;;;10.20;90.10;;;;;;5031020;28;20259;-78
2022/03/30 12:12:36;;;;;;;8.43;1.43;;;10.20;90.00;;;;;;5030861;28;20281;-78
2022/03/30 12:15:05;;;;;;;2.50;1.47;;;10.20;89.90;;;;;;5030932;28;20390;-78
2022/03/30 12:17:32;;;;;;;2.63;1.47;;;10.30;91.20;;;;;;5030593;28;20204;-78
2022/03/30 12:20:00;;;;;;;2.93;1.17;;;10.20;90.80;;;;;;5043941;28;20243;-78
2022/03/30 12:22:27;;;;;;;4.97;2.07;;;10.30;90.90;;;;;;5048538;28;20214;-78
2022/03/30 12:24:54;;;;;;;2.87;1.33;;;10.40;91.10;;;;;;5030518;28;20211;-78
2022/03/30 12:27:21;;;;;;;3.33;1.23;;;10.40;91.00;;;;;;5030907;28;20232;-78
2022/03/30 12:29:49;;;;;;;2.73;1.50;;;10.40;91.10;;;;;;5030729;28;20659;-78
2022/03/30 12:32:16;;;;;;;5.83;1.70;;;10.40;91.00;;;;;;5030676;28;20213;-78
2022/03/30 12:34:46;;;;;;;2.87;1.30;;;10.40;91.00;;;;;;5030205;28;20209;-79
2022/03/30 12:37:21;;;;;;;5.27;1.63;;;10.40;91.20;;;;;;5030472;28;20246;-78
2022/03/30 12:39:47;;;;;;;4.03;1.87;;;10.50;91.00;;;;;;5028518;28;20231;-78
2022/03/30 12:42:17;;;;;;;4.43;1.67;;;10.50;90.80;;;;;;5013763;28;20661;-78
2022/03/30 12:44:50;;;;;;;2.03;1.60;;;10.40;90.80;;;;;;5010493;28;20304;-78
2022/03/30 12:47:18;;;;;;;2.33;2.13;;;10.40;90.90;;;;;;5010803;28;20324;-77
2022/03/30 12:49:45;;;;;;;1.83;1.20;;;10.40;91.00;;;;;;5011785;28;20209;-78
2022/03/30 12:52:14;;;;;;;2.97;1.60;;;10.50;90.80;;;;;;5027481;28;20205;-79
2022/03/30 12:54:43;;;;;;;3.53;1.40;;;10.50;90.60;;;;;;5010347;28;20205;-78
2022/03/30 12:57:10;;;;;;;4.93;1.30;;;10.40;90.70;;;;;;5016836;28;20228;-78
2022/03/30 12:59:41;;;;;;;2.83;1.80;;;10.40;90.90;;;;;;5029664;28;20707;-78
2022/03/30 13:02:20;;;;;;;2.97;1.80;;;10.40;91.00;;;;;;5030155;28;20197;-78
2022/03/30 13:04:51;;;;;;;1.13;1.10;;;10.40;91.00;;;;;;5029637;28;20667;-78
2022/03/30 13:07:22;;;;;;;2.70;1.30;;;10.40;90.90;;;;;;5030008;28;20251;-78
2022/03/30 13:10:06;;;;;;;2.43;1.47;;;10.40;90.90;;;;;;5030134;28;20193;-78
2022/03/30 13:12:34;;;;;;;4.30;1.27;;;10.30;91.10;;;;;;5029562;28;20236;-79